createdAt,value
2023-04-08T00:01:26.195Z,6.02
2023-04-08T00:03:54.389Z,6.02
2023-04-08T00:06:22.232Z,6.02
2023-04-08T00:08:50.237Z,6.02
2023-04-08T00:11:19.561Z,6.03
2023-04-08T00:13:47.334Z,6.02
2023-04-08T00:16:15.316Z,6.02
2023-04-08T00:18:43.254Z,6.02
2023-04-08T00:21:10.994Z,6.03
2023-04-08T00:23:38.784Z,6.02
2023-04-08T00:26:06.616Z,6.01
2023-04-08T00:28:35.767Z,5.98
2023-04-08T00:31:03.562Z,6.00
2023-04-08T00:33:31.351Z,6.00
2023-04-08T00:35:59.183Z,6.02
2023-04-08T00:38:27.012Z,6.01
2023-04-08T00:40:54.785Z,5.99
2023-04-08T00:43:22.570Z,5.97
2023-04-08T00:45:51.771Z,5.98
2023-04-08T00:48:19.688Z,5.97
2023-04-08T00:50:47.497Z,5.96
2023-04-08T00:53:17.236Z,5.97
2023-04-08T00:55:45.382Z,5.96
2023-04-08T00:58:14.033Z,5.97
2023-04-08T01:00:44.721Z,5.96
2023-04-08T01:03:18.171Z,5.96
2023-04-08T01:05:52.909Z,5.99
2023-04-08T01:08:20.926Z,5.98
2023-04-08T01:10:51.039Z,5.92
2023-04-08T01:13:19.655Z,5.98
2023-04-08T01:15:47.431Z,5.97
2023-04-08T01:18:17.367Z,5.97
2023-04-08T01:20:46.241Z,5.95
2023-04-08T01:23:17.669Z,5.95
2023-04-08T01:25:48.788Z,5.95
2023-04-08T01:28:17.998Z,5.96
2023-04-08T01:30:47.282Z,5.96
2023-04-08T01:33:16.683Z,5.79
2023-04-08T01:35:44.766Z,5.93
2023-04-08T01:38:15.855Z,5.94
2023-04-08T01:40:43.879Z,5.95
2023-04-08T01:43:15.014Z,5.87
2023-04-08T01:45:43.763Z,5.82
2023-04-08T01:48:12.197Z,5.97
2023-04-08T01:50:41.279Z,5.91
2023-04-08T01:53:10.118Z,5.93
2023-04-08T01:55:38.916Z,5.90
2023-04-08T01:58:08.779Z,5.91
2023-04-08T02:00:38.123Z,5.90
2023-04-08T02:03:07.064Z,5.90
2023-04-08T02:05:35.373Z,5.92
2023-04-08T02:08:03.227Z,5.87
2023-04-08T02:10:31.013Z,5.90
2023-04-08T02:12:58.805Z,5.88
2023-04-08T02:15:27.565Z,5.86
2023-04-08T02:17:57.688Z,5.85
2023-04-08T02:20:32.481Z,5.87
2023-04-08T02:23:05.200Z,5.87
2023-04-08T02:25:36.101Z,5.87
2023-04-08T02:28:05.842Z,5.86
2023-04-08T02:30:34.029Z,5.84
2023-04-08T02:33:04.668Z,5.77
2023-04-08T02:35:32.879Z,5.80
2023-04-08T02:38:00.761Z,5.79
2023-04-08T02:40:30.519Z,5.81
2023-04-08T02:42:58.978Z,5.80
2023-04-08T02:45:29.248Z,5.80
2023-04-08T02:47:57.081Z,5.77
2023-04-08T02:50:26.275Z,5.78
2023-04-08T02:52:54.020Z,5.78
2023-04-08T02:55:21.743Z,5.72
2023-04-08T02:57:49.890Z,5.75
2023-04-08T03:00:18.228Z,5.74
2023-04-08T03:02:46.354Z,5.73
2023-04-08T03:05:16.315Z,5.70
2023-04-08T03:07:45.505Z,5.69
2023-04-08T03:10:13.363Z,5.67
2023-04-08T03:12:41.174Z,5.61
2023-04-08T03:15:09.564Z,5.60
2023-04-08T03:17:37.364Z,5.58
2023-04-08T03:20:06.179Z,5.54
2023-04-08T03:22:34.386Z,5.52
2023-04-08T03:25:03.897Z,5.48
2023-04-08T03:27:31.879Z,5.45
2023-04-08T03:29:59.678Z,5.41
2023-04-08T03:32:27.570Z,5.36
2023-04-08T03:34:55.359Z,5.33
2023-04-08T03:37:23.176Z,5.31
2023-04-08T03:39:50.975Z,5.27
2023-04-08T03:42:20.159Z,5.25
2023-04-08T03:44:47.964Z,5.22
2023-04-08T03:47:15.750Z,5.21
2023-04-08T03:49:43.523Z,5.20
2023-04-08T03:52:11.321Z,5.19
2023-04-08T03:54:39.150Z,5.17
2023-04-08T03:57:06.901Z,5.18
2023-04-08T03:59:36.469Z,5.13
2023-04-08T04:02:04.455Z,5.15
2023-04-08T04:04:32.360Z,5.13
2023-04-08T04:07:00.177Z,5.10
2023-04-08T04:09:28.170Z,5.05
2023-04-08T04:11:55.966Z,5.03
2023-04-08T04:14:23.731Z,5.04
2023-04-08T04:16:52.904Z,5.01
2023-04-08T04:19:20.892Z,4.90
2023-04-08T04:21:48.646Z,4.97
2023-04-08T04:24:16.476Z,4.94
2023-04-08T04:26:44.203Z,4.91
2023-04-08T04:29:11.980Z,4.88
2023-04-08T04:31:39.953Z,4.85
2023-04-08T04:34:09.181Z,4.82
2023-04-08T04:36:36.939Z,4.81
2023-04-08T04:39:04.904Z,4.79
2023-04-08T04:41:32.691Z,4.79
2023-04-08T04:44:00.517Z,4.73
2023-04-08T04:46:28.354Z,4.76
2023-04-08T04:48:56.599Z,4.73
2023-04-08T04:51:26.554Z,4.68
2023-04-08T04:53:54.334Z,4.65
2023-04-08T04:56:22.309Z,4.62
2023-04-08T04:58:50.314Z,4.61
2023-04-08T05:01:18.228Z,4.59
2023-04-08T05:03:46.072Z,4.51
2023-04-08T05:06:13.931Z,4.53
2023-04-08T05:08:43.088Z,4.51
2023-04-08T05:11:11.217Z,4.30
2023-04-08T05:13:38.983Z,4.41
2023-04-08T05:16:07.425Z,4.46
2023-04-08T05:18:35.252Z,4.46
2023-04-08T05:21:03.125Z,4.46
2023-04-08T05:23:30.850Z,4.45
2023-04-08T05:26:00.009Z,4.54
2023-04-08T05:28:27.835Z,4.56
2023-04-08T05:30:56.073Z,4.57
2023-04-08T05:33:23.933Z,4.61
2023-04-08T05:35:51.688Z,4.62
2023-04-08T05:38:19.553Z,4.66
2023-04-08T05:40:47.347Z,4.66
2023-04-08T05:43:16.702Z,4.70
2023-04-08T05:45:44.456Z,4.72
2023-04-08T05:48:12.232Z,4.77
2023-04-08T05:50:40.057Z,4.78
2023-04-08T05:53:07.920Z,4.78
2023-04-08T05:55:35.835Z,4.81
2023-04-08T05:58:03.641Z,4.82
2023-04-08T06:00:32.778Z,4.86
2023-04-08T06:03:00.679Z,4.91
2023-04-08T06:05:28.685Z,4.94
2023-04-08T06:07:56.431Z,4.94
2023-04-08T06:10:24.507Z,5.01
2023-04-08T06:12:52.309Z,5.12
2023-04-08T06:15:21.274Z,5.28
2023-04-08T06:17:50.788Z,5.37
2023-04-08T06:20:18.646Z,5.42
2023-04-08T06:22:46.374Z,5.43
2023-04-08T06:25:14.217Z,5.47
2023-04-08T06:27:42.002Z,5.45
2023-04-08T06:30:10.814Z,5.54
2023-04-08T06:32:38.577Z,5.54
2023-04-08T06:35:09.097Z,5.74
2023-04-08T06:37:38.724Z,5.80
2023-04-08T06:40:07.830Z,5.92
2023-04-08T06:42:36.077Z,5.99
2023-04-08T06:45:03.967Z,6.01
2023-04-08T06:47:31.789Z,5.96
2023-04-08T06:49:59.625Z,5.97
2023-04-08T06:52:28.759Z,6.01
2023-04-08T06:54:56.530Z,6.07
2023-04-08T06:57:24.389Z,6.17
2023-04-08T06:59:53.516Z,6.16
2023-04-08T07:02:22.708Z,6.21
2023-04-08T07:04:50.834Z,6.18
2023-04-08T07:07:18.641Z,6.08
2023-04-08T07:09:47.761Z,5.93
2023-04-08T07:12:15.675Z,5.84
2023-04-08T07:14:43.448Z,5.81
2023-04-08T07:17:11.220Z,5.78
2023-04-08T07:19:39.025Z,5.75
2023-04-08T07:22:06.840Z,5.80
2023-04-08T07:24:34.892Z,5.86
2023-04-08T07:27:04.135Z,5.85
2023-04-08T07:29:32.344Z,5.93
2023-04-08T07:32:00.105Z,6.00
2023-04-08T07:34:27.867Z,6.07
2023-04-08T07:36:55.653Z,6.14
2023-04-08T07:39:23.383Z,6.20
2023-04-08T07:41:51.130Z,6.27
2023-04-08T07:44:20.291Z,6.36
2023-04-08T07:46:51.579Z,6.41
2023-04-08T07:49:19.482Z,6.47
2023-04-08T07:51:47.316Z,6.50
2023-04-08T07:54:17.441Z,6.56
2023-04-08T07:56:45.556Z,6.55
2023-04-08T07:59:13.671Z,6.61
2023-04-08T08:01:42.950Z,6.74
2023-04-08T08:04:10.934Z,6.80
2023-04-08T08:06:38.760Z,6.91
2023-04-08T08:09:06.569Z,7.10
2023-04-08T08:11:34.398Z,7.20
2023-04-08T08:14:02.173Z,7.29
2023-04-08T08:16:30.210Z,7.37
2023-04-08T08:18:59.647Z,7.46
2023-04-08T08:21:27.807Z,7.49
2023-04-08T08:23:56.919Z,7.53
2023-04-08T08:26:24.864Z,7.59
2023-04-08T08:28:52.627Z,7.62
2023-04-08T08:31:20.382Z,7.70
2023-04-08T08:33:48.714Z,7.71
2023-04-08T08:36:18.184Z,7.73
2023-04-08T08:38:46.141Z,7.78
2023-04-08T08:41:13.895Z,7.75
2023-04-08T08:43:41.676Z,7.78
2023-04-08T08:46:11.972Z,7.82
2023-04-08T08:48:40.816Z,7.83
2023-04-08T08:51:10.673Z,7.84
2023-04-08T08:53:40.242Z,7.76
2023-04-08T08:58:41.042Z,7.66
2023-04-08T09:01:34.343Z,7.67
2023-04-08T09:04:09.950Z,7.65
2023-04-08T09:06:37.931Z,7.66
2023-04-08T09:09:10.584Z,7.49
2023-04-08T09:11:40.552Z,7.56
2023-04-08T09:14:19.170Z,7.58
2023-04-08T09:16:47.334Z,7.56
2023-04-08T09:19:15.526Z,7.51
2023-04-08T09:21:43.882Z,7.58
2023-04-08T09:24:30.799Z,7.59
2023-04-08T09:26:58.602Z,7.57
2023-04-08T09:29:30.533Z,7.57
2023-04-08T09:32:02.524Z,7.45
2023-04-08T09:34:32.606Z,7.33
2023-04-08T09:37:00.868Z,7.38
2023-04-08T09:39:30.803Z,7.47
2023-04-08T09:42:01.198Z,7.54
2023-04-08T09:44:30.539Z,7.55
2023-04-08T09:47:03.164Z,7.57
2023-04-08T09:49:35.614Z,7.61
2023-04-08T09:52:08.793Z,7.51
2023-04-08T09:54:45.477Z,7.32
2023-04-08T09:57:16.362Z,7.40
2023-04-08T09:59:51.310Z,7.37
2023-04-08T10:02:26.776Z,7.43
2023-04-08T10:04:56.172Z,7.29
2023-04-08T10:07:24.029Z,7.44
2023-04-08T10:09:53.504Z,7.55
2023-04-08T10:12:21.323Z,7.62
2023-04-08T10:15:22.556Z,7.72
2023-04-08T10:17:50.523Z,7.84
2023-04-08T10:20:45.937Z,7.91
2023-04-08T10:23:14.636Z,7.98
2023-04-08T10:25:45.293Z,8.02
2023-04-08T10:28:34.013Z,8.07
2023-04-08T10:31:03.092Z,8.11
2023-04-08T10:33:37.258Z,8.09
2023-04-08T10:36:11.505Z,8.05
2023-04-08T10:38:39.590Z,8.19
2023-04-08T10:41:08.841Z,8.13
2023-04-08T10:43:37.193Z,8.24
2023-04-08T10:46:05.594Z,8.35
2023-04-08T10:48:33.773Z,8.41
2023-04-08T10:51:08.468Z,8.35
2023-04-08T10:53:37.123Z,8.16
2023-04-08T10:56:06.264Z,8.42
2023-04-08T10:58:36.343Z,8.51
2023-04-08T11:01:05.813Z,8.35
2023-04-08T11:03:34.826Z,8.55
2023-04-08T11:06:03.119Z,8.52
2023-04-08T11:08:31.085Z,8.53
2023-04-08T11:11:01.256Z,8.59
2023-04-08T11:13:29.306Z,8.59
2023-04-08T11:16:00.119Z,8.64
2023-04-08T11:18:28.655Z,8.75
2023-04-08T11:20:58.346Z,8.84
2023-04-08T11:23:27.981Z,8.90
2023-04-08T11:25:56.197Z,8.94
2023-04-08T11:28:24.148Z,9.04
2023-04-08T11:30:52.029Z,9.06
2023-04-08T11:33:21.638Z,9.09
2023-04-08T11:35:53.379Z,9.19
2023-04-08T11:38:23.818Z,9.13
2023-04-08T11:40:54.186Z,9.05
2023-04-08T11:43:22.108Z,9.15
2023-04-08T11:45:49.973Z,9.24
2023-04-08T11:48:18.394Z,9.48
2023-04-08T11:50:47.533Z,9.68
2023-04-08T11:53:19.847Z,9.94
2023-04-08T11:55:48.537Z,10.39
2023-04-08T11:58:16.530Z,10.87
2023-04-08T12:00:45.649Z,11.22
2023-04-08T12:03:13.639Z,11.70
2023-04-08T12:05:42.625Z,12.00
2023-04-08T12:08:11.856Z,12.18
2023-04-08T12:10:39.645Z,12.27
2023-04-08T12:13:07.430Z,12.13
2023-04-08T12:15:35.184Z,12.41
2023-04-08T12:18:03.152Z,12.52
2023-04-08T12:20:31.012Z,12.45
2023-04-08T12:22:58.791Z,12.65
2023-04-08T12:25:31.401Z,12.73
2023-04-08T12:27:59.217Z,12.56
2023-04-08T12:30:26.996Z,12.34
2023-04-08T12:32:55.423Z,12.20
2023-04-08T12:35:23.334Z,12.25
2023-04-08T12:37:51.184Z,12.32
2023-04-08T12:40:19.238Z,12.15
2023-04-08T12:42:48.623Z,12.30
2023-04-08T12:45:16.603Z,12.43
2023-04-08T12:47:44.431Z,12.70
2023-04-08T12:50:12.261Z,12.46
2023-04-08T12:52:40.098Z,12.30
2023-04-08T12:55:08.662Z,12.18
2023-04-08T12:57:36.419Z,12.07
2023-04-08T13:00:06.496Z,12.19
2023-04-08T13:02:34.336Z,12.16
2023-04-08T13:05:02.187Z,12.21
2023-04-08T13:07:30.028Z,12.22
2023-04-08T13:09:57.752Z,12.21
2023-04-08T13:12:25.564Z,12.12
2023-04-08T13:14:53.383Z,12.01
2023-04-08T13:17:22.876Z,11.56
2023-04-08T13:19:51.229Z,11.28
2023-04-08T13:22:19.128Z,10.83
2023-04-08T13:24:46.927Z,11.30
2023-04-08T13:27:14.752Z,11.24
2023-04-08T13:29:42.617Z,11.11
2023-04-08T13:32:10.461Z,11.11
2023-04-08T13:34:39.597Z,10.88
2023-04-08T13:37:07.404Z,11.11
2023-04-08T13:39:35.646Z,11.43
2023-04-08T13:42:03.533Z,12.02
2023-04-08T13:44:33.166Z,12.42
2023-04-08T13:47:00.959Z,12.47
2023-04-08T13:49:28.806Z,12.43
2023-04-08T13:51:57.927Z,12.45
2023-04-08T13:54:25.904Z,12.17
2023-04-08T13:56:53.721Z,11.74
2023-04-08T13:59:21.514Z,11.52
2023-04-08T14:01:53.750Z,11.33
2023-04-08T14:04:21.858Z,11.23
2023-04-08T14:06:51.047Z,11.16
2023-04-08T14:09:20.704Z,11.31
2023-04-08T14:11:48.467Z,11.45
2023-04-08T14:14:16.214Z,11.49
2023-04-08T14:16:44.058Z,11.52
2023-04-08T14:19:11.871Z,11.63
2023-04-08T14:21:39.730Z,11.79
2023-04-08T14:24:07.598Z,11.78
2023-04-08T14:26:36.775Z,11.65
2023-04-08T14:29:05.471Z,11.75
2023-04-08T14:31:33.328Z,11.79
2023-04-08T14:34:01.453Z,11.86
2023-04-08T14:36:30.280Z,11.72
2023-04-08T14:38:58.118Z,11.48
2023-04-08T14:41:27.290Z,11.42
2023-04-08T14:43:56.524Z,11.35
2023-04-08T14:46:26.485Z,11.25
2023-04-08T14:48:55.923Z,11.14
2023-04-08T14:51:23.687Z,11.21
2023-04-08T14:53:51.677Z,11.21
2023-04-08T14:56:19.509Z,11.22
2023-04-08T14:58:47.296Z,11.27
2023-04-08T15:01:16.421Z,11.40
2023-04-08T15:03:44.306Z,11.53
2023-04-08T15:06:16.916Z,11.43
2023-04-08T15:08:45.823Z,11.40
2023-04-08T15:11:13.768Z,11.02
2023-04-08T15:13:41.729Z,10.76
2023-04-08T15:16:09.577Z,10.41
2023-04-08T15:18:38.737Z,10.28
2023-04-08T15:21:06.602Z,10.18
2023-04-08T15:23:34.368Z,10.20
2023-04-08T15:26:03.426Z,10.23
2023-04-08T15:28:31.188Z,10.33
2023-04-08T15:30:59.066Z,10.30
2023-04-08T15:33:27.121Z,10.35
2023-04-08T15:35:57.493Z,10.37
2023-04-08T15:38:25.557Z,10.34
2023-04-08T15:40:53.563Z,10.38
2023-04-08T15:43:21.396Z,10.46
2023-04-08T15:45:49.152Z,10.40
2023-04-08T15:48:16.970Z,10.43
2023-04-08T15:50:44.838Z,10.59
2023-04-08T15:53:13.998Z,10.76
2023-04-08T15:55:42.208Z,10.88
2023-04-08T15:58:10.026Z,10.81
2023-04-08T16:00:37.843Z,10.72
2023-04-08T16:03:08.435Z,10.76
2023-04-08T16:05:39.226Z,10.68
2023-04-08T16:08:07.699Z,10.64
2023-04-08T16:10:37.329Z,10.54
2023-04-08T16:13:05.116Z,10.54
2023-04-08T16:15:34.147Z,10.53
2023-04-08T16:18:03.094Z,10.44
2023-04-08T16:20:30.890Z,10.42
2023-04-08T16:22:58.633Z,10.44
2023-04-08T16:25:28.175Z,10.37
2023-04-08T16:27:57.471Z,10.39
2023-04-08T16:30:25.303Z,10.40
2023-04-08T16:32:53.134Z,10.39
2023-04-08T16:35:22.348Z,10.50
2023-04-08T16:37:50.192Z,10.43
2023-04-08T16:40:18.286Z,10.43
2023-04-08T16:42:46.121Z,10.37
2023-04-08T16:45:15.778Z,10.43
2023-04-08T16:47:44.475Z,10.49
2023-04-08T16:50:12.484Z,10.38
2023-04-08T16:52:40.266Z,10.24
2023-04-08T16:55:09.198Z,10.23
2023-04-08T16:57:36.974Z,10.22
2023-04-08T17:00:05.232Z,10.14
2023-04-08T17:02:34.478Z,10.13
2023-04-08T17:05:02.315Z,10.08
2023-04-08T17:07:31.202Z,10.06
2023-04-08T17:09:59.043Z,10.06
2023-04-08T17:12:26.839Z,10.03
2023-04-08T17:14:54.678Z,9.96
2023-04-08T17:17:22.480Z,9.92
2023-04-08T17:19:52.003Z,9.93
2023-04-08T17:22:19.751Z,9.92
2023-04-08T17:24:48.187Z,9.81
2023-04-08T17:27:16.160Z,9.78
2023-04-08T17:29:43.956Z,9.77
2023-04-08T17:32:12.518Z,9.73
2023-04-08T17:34:41.016Z,9.64
2023-04-08T17:37:10.481Z,9.62
2023-04-08T17:39:40.931Z,9.61
2023-04-08T17:42:08.963Z,9.51
2023-04-08T17:44:36.903Z,9.46
2023-04-08T17:47:04.972Z,9.45
2023-04-08T17:49:32.792Z,9.41
2023-04-08T17:52:00.640Z,9.35
2023-04-08T17:54:31.468Z,9.40
2023-04-08T17:56:59.263Z,9.36
2023-04-08T17:59:27.071Z,9.29
2023-04-08T18:01:54.968Z,9.21
2023-04-08T18:04:22.954Z,9.15
2023-04-08T18:06:50.795Z,9.08
2023-04-08T18:09:18.556Z,9.06
2023-04-08T18:11:47.639Z,9.07
2023-04-08T18:14:15.418Z,9.08
2023-04-08T18:16:43.282Z,9.09
2023-04-08T18:19:11.069Z,9.08
2023-04-08T18:21:38.908Z,9.03
2023-04-08T18:24:08.722Z,8.96
2023-04-08T18:26:37.106Z,8.96
2023-04-08T18:29:06.761Z,8.95
2023-04-08T18:31:34.648Z,8.95
2023-04-08T18:34:03.186Z,8.97
2023-04-08T18:36:31.742Z,8.96
2023-04-08T18:38:59.488Z,8.96
2023-04-08T18:41:28.018Z,8.93
2023-04-08T18:43:56.003Z,8.92
2023-04-08T18:46:25.256Z,8.92
2023-04-08T18:48:53.066Z,8.92
2023-04-08T18:51:20.850Z,8.92
2023-04-08T18:53:49.855Z,8.89
2023-04-08T18:56:18.004Z,8.85
2023-04-08T18:58:46.326Z,8.90
2023-04-08T19:01:14.372Z,8.80
2023-04-08T19:03:44.356Z,8.88
2023-04-08T19:06:13.040Z,8.86
2023-04-08T19:08:41.491Z,8.89
2023-04-08T19:11:09.252Z,8.86
2023-04-08T19:13:37.075Z,8.86
2023-04-08T19:16:05.149Z,8.87
2023-04-08T19:18:32.980Z,8.88
2023-04-08T19:21:03.601Z,8.87
2023-04-08T19:23:32.108Z,8.81
2023-04-08T19:25:59.915Z,8.77
2023-04-08T19:28:27.633Z,8.74
2023-04-08T19:30:55.423Z,8.75
2023-04-08T19:33:23.668Z,8.66
2023-04-08T19:35:51.483Z,8.64
2023-04-08T19:38:20.624Z,8.62
2023-04-08T19:40:49.254Z,8.52
2023-04-08T19:43:17.918Z,8.37
2023-04-08T19:45:46.321Z,8.27
2023-04-08T19:48:14.226Z,8.24
2023-04-08T19:50:42.745Z,8.15
2023-04-08T19:53:10.482Z,8.12
2023-04-08T19:55:39.817Z,8.02
2023-04-08T19:58:07.900Z,7.99
2023-04-08T20:00:37.408Z,8.00
2023-04-08T20:03:05.859Z,7.96
2023-04-08T20:05:33.872Z,7.85
2023-04-08T20:08:01.656Z,7.82
2023-04-08T20:10:29.571Z,7.76
2023-04-08T20:12:58.698Z,7.74
2023-04-08T20:15:26.594Z,7.74
2023-04-08T20:17:54.462Z,7.71
2023-04-08T20:20:22.911Z,7.72
2023-04-08T20:22:50.855Z,7.70
2023-04-08T20:25:18.752Z,7.71
2023-04-08T20:27:46.599Z,7.67
2023-04-08T20:30:15.848Z,7.66
2023-04-08T20:32:43.633Z,7.64
2023-04-08T20:35:11.830Z,7.68
2023-04-08T20:37:39.566Z,7.66
2023-04-08T20:40:09.206Z,7.60
2023-04-08T20:42:38.610Z,7.62
2023-04-08T20:45:07.543Z,7.62
2023-04-08T20:47:36.714Z,7.54
2023-04-08T20:50:04.911Z,7.49
2023-04-08T20:52:32.724Z,7.55
2023-04-08T20:55:00.629Z,7.49
2023-04-08T20:57:28.414Z,7.48
2023-04-08T20:59:56.144Z,7.49
2023-04-08T21:02:24.342Z,7.50
2023-04-08T21:04:53.658Z,7.45
2023-04-08T21:07:32.874Z,7.48
2023-04-08T21:10:01.152Z,7.45
2023-04-08T21:12:35.029Z,7.45
2023-04-08T21:15:02.758Z,7.46
2023-04-08T21:17:31.279Z,7.41
2023-04-08T21:20:00.521Z,7.41
2023-04-08T21:22:28.886Z,7.38
2023-04-08T21:24:57.891Z,7.38
2023-04-08T21:27:25.666Z,7.39
2023-04-08T21:29:53.495Z,7.35
2023-04-08T21:32:21.257Z,7.12
2023-04-08T21:34:49.060Z,7.35
2023-04-08T21:37:18.339Z,7.36
2023-04-08T21:39:46.809Z,7.34
2023-04-08T21:42:14.556Z,7.33
2023-04-08T21:44:42.478Z,7.30
2023-04-08T21:47:10.744Z,7.28
2023-04-08T21:49:38.520Z,7.29
2023-04-08T21:52:06.854Z,7.24
2023-04-08T21:54:36.460Z,7.09
2023-04-08T21:57:04.634Z,7.21
2023-04-08T21:59:32.380Z,7.23
2023-04-08T22:02:03.919Z,7.23
2023-04-08T22:04:31.812Z,7.19
2023-04-08T22:06:59.795Z,7.24
2023-04-08T22:09:27.890Z,7.23
2023-04-08T22:11:57.967Z,7.18
2023-04-08T22:14:26.149Z,7.11
2023-04-08T22:16:54.706Z,7.10
2023-04-08T22:19:22.505Z,7.12
2023-04-08T22:21:51.255Z,7.12
2023-04-08T22:24:19.572Z,7.10
2023-04-08T22:26:47.433Z,6.99
2023-04-08T22:29:17.351Z,7.08
2023-04-08T22:31:45.578Z,7.09
2023-04-08T22:34:13.681Z,7.06
2023-04-08T22:36:41.572Z,7.07
2023-04-08T22:39:09.579Z,7.03
2023-04-08T22:41:37.409Z,7.08
2023-04-08T22:44:05.441Z,7.07
2023-04-08T22:46:35.044Z,7.06
2023-04-08T22:49:03.325Z,7.10
2023-04-08T22:51:31.046Z,7.10
2023-04-08T22:53:59.261Z,7.06
2023-04-08T22:56:28.937Z,7.00
2023-04-08T22:58:56.796Z,7.05
2023-04-08T23:01:24.757Z,7.10
2023-04-08T23:03:54.395Z,7.09
2023-04-08T23:06:22.492Z,7.09
2023-04-08T23:08:50.539Z,7.05
2023-04-08T23:11:19.053Z,7.04
2023-04-08T23:13:47.039Z,7.04
2023-04-08T23:16:14.902Z,7.05
2023-04-08T23:18:43.139Z,7.01
2023-04-08T23:21:12.338Z,6.97
2023-04-08T23:23:40.100Z,6.93
2023-04-08T23:26:07.945Z,6.93
2023-04-08T23:28:35.766Z,6.90
2023-04-08T23:31:05.340Z,6.92
2023-04-08T23:33:33.132Z,6.95
2023-04-08T23:36:00.898Z,6.86
2023-04-08T23:38:30.039Z,6.88
2023-04-08T23:40:57.759Z,6.85
2023-04-08T23:43:25.533Z,6.83
2023-04-08T23:45:53.260Z,6.83
2023-04-08T23:48:21.007Z,6.88
2023-04-08T23:50:52.315Z,6.89
2023-04-08T23:53:20.273Z,6.85
2023-04-08T23:55:49.411Z,6.85
2023-04-08T23:58:17.277Z,6.83
